Terminal Aerodrome Forecast
Issued by NWS

Home | Current Version | Previous Version | Text Only | Print | Product List | Glossary On
Versions: 1 2 3 4 5 6 7 8 9 10 11 12 13 14 15 16 17 18 19 20 21 22 23 24 25 26 27 28 29 30 31 32
000
FTUS41 KBOX 290533
TAFHYA
TAF
KHYA 290533Z 2906/3006 32006KT P6SM BKN025
     FM290900 36006KT P6SM SKC
     FM292000 00000KT P6SM FEW200
     FM300400 17005KT P6SM BKN110=

USA.gov is the U.S. government's official web portal to all federal, state and local government web resources and services.